sensor_id;sensor_type;location;lat;lon;timestamp;P1;durP1;ratioP1;P2;durP2;ratioP2
67037;SDS011;53940;53.204;6.590;2024-02-14T00:00:17;0.60;;;0.40;;
67037;SDS011;53940;53.204;6.590;2024-02-14T00:03:17;0.88;;;0.40;;
67037;SDS011;53940;53.204;6.590;2024-02-14T00:06:18;1.33;;;0.50;;
67037;SDS011;53940;53.204;6.590;2024-02-14T00:09:19;0.90;;;0.40;;
67037;SDS011;53940;53.204;6.590;2024-02-14T00:12:19;0.68;;;0.38;;
67037;SDS011;53940;53.204;6.590;2024-02-14T00:15:19;0.63;;;0.40;;
67037;SDS011;53940;53.204;6.590;2024-02-14T00:18:20;0.88;;;0.43;;
67037;SDS011;53940;53.204;6.590;2024-02-14T00:21:23;0.57;;;0.40;;
67037;SDS011;53940;53.204;6.590;2024-02-14T00:24:24;0.95;;;0.50;;
67037;SDS011;53940;53.204;6.590;2024-02-14T00:27:26;0.57;;;0.35;;
67037;SDS011;53940;53.204;6.590;2024-02-14T00:30:27;0.60;;;0.40;;
67037;SDS011;53940;53.204;6.590;2024-02-14T00:33:27;0.68;;;0.40;;
67037;SDS011;53940;53.204;6.590;2024-02-14T00:36:27;0.57;;;0.45;;
67037;SDS011;53940;53.204;6.590;2024-02-14T00:39:28;0.63;;;0.40;;
67037;SDS011;53940;53.204;6.590;2024-02-14T00:42:29;0.68;;;0.30;;
67037;SDS011;53940;53.204;6.590;2024-02-14T00:45:29;0.98;;;0.47;;
67037;SDS011;53940;53.204;6.590;2024-02-14T00:48:29;0.50;;;0.30;;
67037;SDS011;53940;53.204;6.590;2024-02-14T00:51:30;1.05;;;0.40;;
67037;SDS011;53940;53.204;6.590;2024-02-14T00:54:30;0.60;;;0.38;;
67037;SDS011;53940;53.204;6.590;2024-02-14T00:57:31;1.42;;;0.30;;
67037;SDS011;53940;53.204;6.590;2024-02-14T01:00:32;0.63;;;0.40;;
67037;SDS011;53940;53.204;6.590;2024-02-14T01:03:32;0.40;;;0.30;;
67037;SDS011;53940;53.204;6.590;2024-02-14T01:06:32;1.10;;;0.60;;
67037;SDS011;53940;53.204;6.590;2024-02-14T01:09:33;0.43;;;0.30;;
67037;SDS011;53940;53.204;6.590;2024-02-14T01:12:33;0.70;;;0.40;;
67037;SDS011;53940;53.204;6.590;2024-02-14T01:15:33;0.90;;;0.35;;
67037;SDS011;53940;53.204;6.590;2024-02-14T01:18:34;1.42;;;0.40;;
67037;SDS011;53940;53.204;6.590;2024-02-14T01:21:34;0.82;;;0.30;;
67037;SDS011;53940;53.204;6.590;2024-02-14T01:24:34;0.52;;;0.40;;
67037;SDS011;53940;53.204;6.590;2024-02-14T01:27:34;0.68;;;0.40;;
67037;SDS011;53940;53.204;6.590;2024-02-14T01:30:36;0.50;;;0.40;;
67037;SDS011;53940;53.204;6.590;2024-02-14T01:33:36;0.55;;;0.45;;
67037;SDS011;53940;53.204;6.590;2024-02-14T01:36:36;0.63;;;0.40;;
67037;SDS011;53940;53.204;6.590;2024-02-14T01:39:38;0.38;;;0.25;;
67037;SDS011;53940;53.204;6.590;2024-02-14T01:42:39;0.93;;;0.50;;
67037;SDS011;53940;53.204;6.590;2024-02-14T01:45:39;0.90;;;0.40;;
67037;SDS011;53940;53.204;6.590;2024-02-14T01:48:39;0.63;;;0.40;;
67037;SDS011;53940;53.204;6.590;2024-02-14T01:51:42;0.73;;;0.40;;
67037;SDS011;53940;53.204;6.590;2024-02-14T01:54:44;0.50;;;0.30;;
67037;SDS011;53940;53.204;6.590;2024-02-14T01:57:45;0.35;;;0.25;;
67037;SDS011;53940;53.204;6.590;2024-02-14T02:00:45;0.60;;;0.40;;
67037;SDS011;53940;53.204;6.590;2024-02-14T02:03:46;0.57;;;0.35;;
67037;SDS011;53940;53.204;6.590;2024-02-14T02:06:46;0.73;;;0.40;;
67037;SDS011;53940;53.204;6.590;2024-02-14T02:09:47;0.52;;;0.30;;
67037;SDS011;53940;53.204;6.590;2024-02-14T02:12:48;0.47;;;0.30;;
67037;SDS011;53940;53.204;6.590;2024-02-14T02:15:49;0.75;;;0.47;;
67037;SDS011;53940;53.204;6.590;2024-02-14T02:18:49;0.40;;;0.30;;
67037;SDS011;53940;53.204;6.590;2024-02-14T02:21:50;0.32;;;0.28;;
67037;SDS011;53940;53.204;6.590;2024-02-14T02:24:50;0.40;;;0.22;;
67037;SDS011;53940;53.204;6.590;2024-02-14T02:27:51;1.35;;;0.38;;
67037;SDS011;53940;53.204;6.590;2024-02-14T02:30:51;0.70;;;0.30;;
67037;SDS011;53940;53.204;6.590;2024-02-14T02:33:53;0.20;;;0.20;;
67037;SDS011;53940;53.204;6.590;2024-02-14T02:36:53;0.77;;;0.40;;
67037;SDS011;53940;53.204;6.590;2024-02-14T02:39:54;0.60;;;0.40;;
67037;SDS011;53940;53.204;6.590;2024-02-14T02:42:54;0.65;;;0.40;;
67037;SDS011;53940;53.204;6.590;2024-02-14T02:45:55;0.80;;;0.32;;
67037;SDS011;53940;53.204;6.590;2024-02-14T02:48:55;0.57;;;0.35;;
67037;SDS011;53940;53.204;6.590;2024-02-14T02:51:57;0.82;;;0.40;;
67037;SDS011;53940;53.204;6.590;2024-02-14T02:54:57;0.55;;;0.38;;
67037;SDS011;53940;53.204;6.590;2024-02-14T02:57:57;0.60;;;0.40;;
67037;SDS011;53940;53.204;6.590;2024-02-14T03:00:59;0.40;;;0.20;;
67037;SDS011;53940;53.204;6.590;2024-02-14T03:03:59;0.60;;;0.38;;
67037;SDS011;53940;53.204;6.590;2024-02-14T03:06:59;0.60;;;0.30;;
67037;SDS011;53940;53.204;6.590;2024-02-14T03:10:06;0.68;;;0.43;;
67037;SDS011;53940;53.204;6.590;2024-02-14T03:13:07;0.40;;;0.20;;
67037;SDS011;53940;53.204;6.590;2024-02-14T03:16:11;0.57;;;0.30;;
67037;SDS011;53940;53.204;6.590;2024-02-14T03:19:12;0.50;;;0.30;;
67037;SDS011;53940;53.204;6.590;2024-02-14T03:22:12;0.52;;;0.32;;
67037;SDS011;53940;53.204;6.590;2024-02-14T03:25:13;0.43;;;0.30;;
67037;SDS011;53940;53.204;6.590;2024-02-14T03:28:16;0.43;;;0.30;;
67037;SDS011;53940;53.204;6.590;2024-02-14T03:31:17;0.47;;;0.30;;
67037;SDS011;53940;53.204;6.590;2024-02-14T03:34:17;0.40;;;0.20;;
67037;SDS011;53940;53.204;6.590;2024-02-14T03:37:19;0.90;;;0.40;;
67037;SDS011;53940;53.204;6.590;2024-02-14T03:40:20;0.40;;;0.30;;
67037;SDS011;53940;53.204;6.590;2024-02-14T03:43:20;0.80;;;0.50;;
67037;SDS011;53940;53.204;6.590;2024-02-14T03:46:23;0.68;;;0.40;;
67037;SDS011;53940;53.204;6.590;2024-02-14T03:49:24;0.30;;;0.25;;
67037;SDS011;53940;53.204;6.590;2024-02-14T03:52:25;0.50;;;0.30;;
67037;SDS011;53940;53.204;6.590;2024-02-14T03:55:26;0.30;;;0.30;;
67037;SDS011;53940;53.204;6.590;2024-02-14T03:58:26;0.50;;;0.30;;
67037;SDS011;53940;53.204;6.590;2024-02-14T04:01:27;0.68;;;0.30;;
67037;SDS011;53940;53.204;6.590;2024-02-14T04:04:27;0.85;;;0.20;;
67037;SDS011;53940;53.204;6.590;2024-02-14T04:07:29;0.40;;;0.30;;
67037;SDS011;53940;53.204;6.590;2024-02-14T04:10:29;0.55;;;0.30;;
67037;SDS011;53940;53.204;6.590;2024-02-14T04:13:30;0.47;;;0.38;;
67037;SDS011;53940;53.204;6.590;2024-02-14T04:16:30;0.55;;;0.22;;
67037;SDS011;53940;53.204;6.590;2024-02-14T04:19:30;0.70;;;0.40;;
67037;SDS011;53940;53.204;6.590;2024-02-14T04:22:31;0.50;;;0.30;;
67037;SDS011;53940;53.204;6.590;2024-02-14T04:25:31;0.47;;;0.30;;
67037;SDS011;53940;53.204;6.590;2024-02-14T04:28:31;0.50;;;0.30;;
67037;SDS011;53940;53.204;6.590;2024-02-14T04:31:32;0.68;;;0.30;;
67037;SDS011;53940;53.204;6.590;2024-02-14T04:34:32;0.20;;;0.20;;
67037;SDS011;53940;53.204;6.590;2024-02-14T04:37:32;0.75;;;0.32;;
67037;SDS011;53940;53.204;6.590;2024-02-14T04:40:33;0.73;;;0.30;;
67037;SDS011;53940;53.204;6.590;2024-02-14T04:43:33;0.52;;;0.30;;
67037;SDS011;53940;53.204;6.590;2024-02-14T04:46:33;0.30;;;0.20;;
67037;SDS011;53940;53.204;6.590;2024-02-14T04:49:39;0.70;;;0.20;;
67037;SDS011;53940;53.204;6.590;2024-02-14T04:52:39;0.38;;;0.25;;
67037;SDS011;53940;53.204;6.590;2024-02-14T04:55:40;0.57;;;0.30;;
67037;SDS011;53940;53.204;6.590;2024-02-14T04:58:40;0.30;;;0.22;;
67037;SDS011;53940;53.204;6.590;2024-02-14T05:01:40;0.57;;;0.20;;
67037;SDS011;53940;53.204;6.590;2024-02-14T05:04:41;0.20;;;0.20;;
67037;SDS011;53940;53.204;6.590;2024-02-14T05:07:41;0.43;;;0.20;;
67037;SDS011;53940;53.204;6.590;2024-02-14T05:10:41;0.32;;;0.30;;
67037;SDS011;53940;53.204;6.590;2024-02-14T05:13:42;0.38;;;0.13;;
67037;SDS011;53940;53.204;6.590;2024-02-14T05:16:43;0.65;;;0.20;;
67037;SDS011;53940;53.204;6.590;2024-02-14T05:19:44;0.32;;;0.22;;
67037;SDS011;53940;53.204;6.590;2024-02-14T05:22:44;0.40;;;0.25;;
67037;SDS011;53940;53.204;6.590;2024-02-14T05:25:44;0.20;;;0.20;;
67037;SDS011;53940;53.204;6.590;2024-02-14T05:28:45;0.60;;;0.30;;
67037;SDS011;53940;53.204;6.590;2024-02-14T05:31:46;0.45;;;0.30;;
67037;SDS011;53940;53.204;6.590;2024-02-14T05:34:48;0.50;;;0.20;;
67037;SDS011;53940;53.204;6.590;2024-02-14T05:37:49;0.40;;;0.30;;
67037;SDS011;53940;53.204;6.590;2024-02-14T05:40:49;0.30;;;0.30;;
67037;SDS011;53940;53.204;6.590;2024-02-14T05:43:50;0.77;;;0.20;;
67037;SDS011;53940;53.204;6.590;2024-02-14T05:46:50;0.20;;;0.20;;
67037;SDS011;53940;53.204;6.590;2024-02-14T05:49:51;0.30;;;0.20;;
67037;SDS011;53940;53.204;6.590;2024-02-14T05:52:51;0.20;;;0.20;;
67037;SDS011;53940;53.204;6.590;2024-02-14T05:55:52;0.38;;;0.20;;
67037;SDS011;53940;53.204;6.590;2024-02-14T05:58:52;0.50;;;0.30;;
67037;SDS011;53940;53.204;6.590;2024-02-14T06:01:52;0.52;;;0.30;;
67037;SDS011;53940;53.204;6.590;2024-02-14T06:04:53;0.20;;;0.17;;
67037;SDS011;53940;53.204;6.590;2024-02-14T06:07:53;0.45;;;0.30;;
67037;SDS011;53940;53.204;6.590;2024-02-14T06:10:54;0.30;;;0.20;;
67037;SDS011;53940;53.204;6.590;2024-02-14T06:13:54;0.20;;;0.20;;
67037;SDS011;53940;53.204;6.590;2024-02-14T06:16:54;0.70;;;0.40;;
67037;SDS011;53940;53.204;6.590;2024-02-14T06:19:55;0.13;;;0.13;;
67037;SDS011;53940;53.204;6.590;2024-02-14T06:22:55;0.25;;;0.20;;
67037;SDS011;53940;53.204;6.590;2024-02-14T06:25:55;0.10;;;0.10;;
67037;SDS011;53940;53.204;6.590;2024-02-14T06:28:56;0.40;;;0.25;;
67037;SDS011;53940;53.204;6.590;2024-02-14T06:31:56;0.20;;;0.20;;
67037;SDS011;53940;53.204;6.590;2024-02-14T06:34:56;0.10;;;0.10;;
67037;SDS011;53940;53.204;6.590;2024-02-14T06:37:57;0.50;;;0.30;;
67037;SDS011;53940;53.204;6.590;2024-02-14T06:40:57;0.25;;;0.20;;
67037;SDS011;53940;53.204;6.590;2024-02-14T06:43:58;0.20;;;0.20;;
67037;SDS011;53940;53.204;6.590;2024-02-14T06:46:58;0.40;;;0.30;;
67037;SDS011;53940;53.204;6.590;2024-02-14T06:49:58;0.63;;;0.20;;
67037;SDS011;53940;53.204;6.590;2024-02-14T06:52:59;0.43;;;0.20;;
67037;SDS011;53940;53.204;6.590;2024-02-14T06:55:59;0.40;;;0.20;;
67037;SDS011;53940;53.204;6.590;2024-02-14T06:58:59;0.35;;;0.25;;
67037;SDS011;53940;53.204;6.590;2024-02-14T07:02:00;0.38;;;0.20;;
67037;SDS011;53940;53.204;6.590;2024-02-14T07:05:01;0.20;;;0.20;;
67037;SDS011;53940;53.204;6.590;2024-02-14T07:08:02;0.10;;;0.10;;
67037;SDS011;53940;53.204;6.590;2024-02-14T07:11:02;0.20;;;0.20;;
67037;SDS011;53940;53.204;6.590;2024-02-14T07:14:03;0.30;;;0.20;;
67037;SDS011;53940;53.204;6.590;2024-02-14T07:17:03;0.30;;;0.28;;
67037;SDS011;53940;53.204;6.590;2024-02-14T07:20:04;0.17;;;0.15;;
67037;SDS011;53940;53.204;6.590;2024-02-14T07:23:05;0.20;;;0.20;;
67037;SDS011;53940;53.204;6.590;2024-02-14T07:26:06;0.20;;;0.20;;
67037;SDS011;53940;53.204;6.590;2024-02-14T07:29:06;0.38;;;0.22;;
67037;SDS011;53940;53.204;6.590;2024-02-14T07:32:06;0.30;;;0.20;;
67037;SDS011;53940;53.204;6.590;2024-02-14T07:35:07;0.30;;;0.30;;
67037;SDS011;53940;53.204;6.590;2024-02-14T07:38:07;0.40;;;0.20;;
67037;SDS011;53940;53.204;6.590;2024-02-14T07:41:08;0.25;;;0.20;;
67037;SDS011;53940;53.204;6.590;2024-02-14T07:44:08;0.20;;;0.20;;
67037;SDS011;53940;53.204;6.590;2024-02-14T07:47:09;0.52;;;0.20;;
67037;SDS011;53940;53.204;6.590;2024-02-14T07:50:09;0.20;;;0.20;;
67037;SDS011;53940;53.204;6.590;2024-02-14T07:53:10;0.40;;;0.30;;
67037;SDS011;53940;53.204;6.590;2024-02-14T07:56:10;0.20;;;0.20;;
67037;SDS011;53940;53.204;6.590;2024-02-14T07:59:11;0.15;;;0.15;;
67037;SDS011;53940;53.204;6.590;2024-02-14T08:02:11;0.30;;;0.30;;
67037;SDS011;53940;53.204;6.590;2024-02-14T08:05:12;0.20;;;0.20;;
67037;SDS011;53940;53.204;6.590;2024-02-14T08:08:12;0.30;;;0.20;;
67037;SDS011;53940;53.204;6.590;2024-02-14T08:11:12;0.15;;;0.10;;
67037;SDS011;53940;53.204;6.590;2024-02-14T08:14:13;0.20;;;0.20;;
67037;SDS011;53940;53.204;6.590;2024-02-14T08:17:13;0.22;;;0.20;;
67037;SDS011;53940;53.204;6.590;2024-02-14T08:20:13;0.20;;;0.20;;
67037;SDS011;53940;53.204;6.590;2024-02-14T08:23:14;0.52;;;0.30;;
67037;SDS011;53940;53.204;6.590;2024-02-14T08:26:15;0.38;;;0.20;;
67037;SDS011;53940;53.204;6.590;2024-02-14T08:29:16;0.75;;;0.30;;
67037;SDS011;53940;53.204;6.590;2024-02-14T08:32:16;0.40;;;0.30;;
67037;SDS011;53940;53.204;6.590;2024-02-14T08:35:16;0.20;;;0.20;;
67037;SDS011;53940;53.204;6.590;2024-02-14T08:38:17;0.70;;;0.30;;
67037;SDS011;53940;53.204;6.590;2024-02-14T08:41:17;0.20;;;0.20;;
67037;SDS011;53940;53.204;6.590;2024-02-14T08:44:18;0.22;;;0.20;;
67037;SDS011;53940;53.204;6.590;2024-02-14T08:47:18;0.40;;;0.20;;
67037;SDS011;53940;53.204;6.590;2024-02-14T08:50:19;0.22;;;0.20;;
67037;SDS011;53940;53.204;6.590;2024-02-14T08:53:19;0.30;;;0.28;;
67037;SDS011;53940;53.204;6.590;2024-02-14T08:56:20;0.52;;;0.25;;
67037;SDS011;53940;53.204;6.590;2024-02-14T08:59:21;0.20;;;0.20;;
67037;SDS011;53940;53.204;6.590;2024-02-14T09:02:21;0.35;;;0.20;;
67037;SDS011;53940;53.204;6.590;2024-02-14T09:05:22;0.20;;;0.20;;
67037;SDS011;53940;53.204;6.590;2024-02-14T09:08:23;0.60;;;0.30;;
67037;SDS011;53940;53.204;6.590;2024-02-14T09:11:24;0.13;;;0.13;;
67037;SDS011;53940;53.204;6.590;2024-02-14T09:14:25;0.50;;;0.20;;
67037;SDS011;53940;53.204;6.590;2024-02-14T09:17:26;0.30;;;0.20;;
67037;SDS011;53940;53.204;6.590;2024-02-14T09:20:27;0.30;;;0.30;;
67037;SDS011;53940;53.204;6.590;2024-02-14T09:23:27;0.65;;;0.30;;
67037;SDS011;53940;53.204;6.590;2024-02-14T09:26:29;0.30;;;0.20;;
67037;SDS011;53940;53.204;6.590;2024-02-14T09:29:29;0.47;;;0.20;;
67037;SDS011;53940;53.204;6.590;2024-02-14T09:32:30;0.30;;;0.15;;
67037;SDS011;53940;53.204;6.590;2024-02-14T09:35:31;0.20;;;0.20;;
67037;SDS011;53940;53.204;6.590;2024-02-14T09:38:31;0.40;;;0.20;;
67037;SDS011;53940;53.204;6.590;2024-02-14T09:41:33;0.30;;;0.20;;
67037;SDS011;53940;53.204;6.590;2024-02-14T09:44:37;0.28;;;0.20;;
67037;SDS011;53940;53.204;6.590;2024-02-14T09:47:38;0.20;;;0.20;;
67037;SDS011;53940;53.204;6.590;2024-02-14T09:50:40;0.35;;;0.25;;
67037;SDS011;53940;53.204;6.590;2024-02-14T09:53:40;0.40;;;0.28;;
67037;SDS011;53940;53.204;6.590;2024-02-14T09:56:41;0.50;;;0.30;;
67037;SDS011;53940;53.204;6.590;2024-02-14T09:59:43;0.13;;;0.13;;
67037;SDS011;53940;53.204;6.590;2024-02-14T10:02:44;0.43;;;0.28;;
67037;SDS011;53940;53.204;6.590;2024-02-14T10:05:46;0.10;;;0.10;;
67037;SDS011;53940;53.204;6.590;2024-02-14T10:08:47;0.30;;;0.22;;
67037;SDS011;53940;53.204;6.590;2024-02-14T10:11:48;0.20;;;0.10;;
67037;SDS011;53940;53.204;6.590;2024-02-14T10:14:49;0.60;;;0.30;;
67037;SDS011;53940;53.204;6.590;2024-02-14T10:17:49;0.45;;;0.30;;
67037;SDS011;53940;53.204;6.590;2024-02-14T10:20:53;0.52;;;0.30;;
67037;SDS011;53940;53.204;6.590;2024-02-14T10:23:55;0.40;;;0.20;;
67037;SDS011;53940;53.204;6.590;2024-02-14T10:27:01;0.20;;;0.20;;
67037;SDS011;53940;53.204;6.590;2024-02-14T10:30:01;0.20;;;0.20;;
67037;SDS011;53940;53.204;6.590;2024-02-14T10:33:02;0.20;;;0.20;;
67037;SDS011;53940;53.204;6.590;2024-02-14T10:36:03;1.13;;;0.40;;
67037;SDS011;53940;53.204;6.590;2024-02-14T10:39:07;0.20;;;0.20;;
67037;SDS011;53940;53.204;6.590;2024-02-14T10:42:10;2.17;;;0.35;;
67037;SDS011;53940;53.204;6.590;2024-02-14T10:45:12;1.08;;;0.30;;
67037;SDS011;53940;53.204;6.590;2024-02-14T10:48:12;0.40;;;0.20;;
67037;SDS011;53940;53.204;6.590;2024-02-14T10:51:13;0.50;;;0.25;;
67037;SDS011;53940;53.204;6.590;2024-02-14T10:54:15;0.47;;;0.30;;
67037;SDS011;53940;53.204;6.590;2024-02-14T10:57:16;0.65;;;0.30;;
67037;SDS011;53940;53.204;6.590;2024-02-14T11:00:18;0.47;;;0.20;;
67037;SDS011;53940;53.204;6.590;2024-02-14T11:03:19;0.55;;;0.20;;
67037;SDS011;53940;53.204;6.590;2024-02-14T11:06:19;0.35;;;0.20;;
67037;SDS011;53940;53.204;6.590;2024-02-14T11:09:20;0.38;;;0.28;;
67037;SDS011;53940;53.204;6.590;2024-02-14T11:12:22;0.32;;;0.28;;
67037;SDS011;53940;53.204;6.590;2024-02-14T11:15:24;1.55;;;0.47;;
67037;SDS011;53940;53.204;6.590;2024-02-14T11:18:25;0.50;;;0.30;;
67037;SDS011;53940;53.204;6.590;2024-02-14T11:21:29;1.55;;;0.45;;
67037;SDS011;53940;53.204;6.590;2024-02-14T11:24:30;0.90;;;0.52;;
67037;SDS011;53940;53.204;6.590;2024-02-14T11:27:32;0.30;;;0.20;;
67037;SDS011;53940;53.204;6.590;2024-02-14T11:30:35;0.55;;;0.32;;
67037;SDS011;53940;53.204;6.590;2024-02-14T11:33:36;0.50;;;0.40;;
67037;SDS011;53940;53.204;6.590;2024-02-14T11:36:37;0.60;;;0.30;;
67037;SDS011;53940;53.204;6.590;2024-02-14T11:39:39;0.38;;;0.30;;
67037;SDS011;53940;53.204;6.590;2024-02-14T11:42:39;0.32;;;0.22;;
67037;SDS011;53940;53.204;6.590;2024-02-14T11:45:43;0.75;;;0.30;;
67037;SDS011;53940;53.204;6.590;2024-02-14T11:48:45;0.70;;;0.40;;
67037;SDS011;53940;53.204;6.590;2024-02-14T11:51:46;0.55;;;0.30;;
67037;SDS011;53940;53.204;6.590;2024-02-14T11:54:46;0.70;;;0.30;;
67037;SDS011;53940;53.204;6.590;2024-02-14T11:57:50;0.80;;;0.30;;
67037;SDS011;53940;53.204;6.590;2024-02-14T12:00:51;0.57;;;0.30;;
67037;SDS011;53940;53.204;6.590;2024-02-14T12:03:51;0.20;;;0.20;;
67037;SDS011;53940;53.204;6.590;2024-02-14T12:06:52;0.20;;;0.20;;
67037;SDS011;53940;53.204;6.590;2024-02-14T12:09:54;0.20;;;0.20;;
67037;SDS011;53940;53.204;6.590;2024-02-14T12:12:55;0.30;;;0.22;;
67037;SDS011;53940;53.204;6.590;2024-02-14T12:15:56;0.40;;;0.30;;
67037;SDS011;53940;53.204;6.590;2024-02-14T12:19:06;0.32;;;0.32;;
67037;SDS011;53940;53.204;6.590;2024-02-14T12:22:15;0.73;;;0.30;;
67037;SDS011;53940;53.204;6.590;2024-02-14T12:25:19;0.50;;;0.30;;
67037;SDS011;53940;53.204;6.590;2024-02-14T12:28:20;0.75;;;0.30;;
67037;SDS011;53940;53.204;6.590;2024-02-14T12:31:23;0.47;;;0.20;;
67037;SDS011;53940;53.204;6.590;2024-02-14T12:34:27;0.85;;;0.22;;
67037;SDS011;53940;53.204;6.590;2024-02-14T12:37:27;0.20;;;0.20;;
67037;SDS011;53940;53.204;6.590;2024-02-14T12:40:28;0.40;;;0.30;;
67037;SDS011;53940;53.204;6.590;2024-02-14T12:43:29;0.50;;;0.25;;
67037;SDS011;53940;53.204;6.590;2024-02-14T12:46:29;0.20;;;0.15;;
67037;SDS011;53940;53.204;6.590;2024-02-14T12:49:30;0.20;;;0.20;;
67037;SDS011;53940;53.204;6.590;2024-02-14T12:52:31;0.45;;;0.30;;
67037;SDS011;53940;53.204;6.590;2024-02-14T12:55:32;0.28;;;0.20;;
67037;SDS011;53940;53.204;6.590;2024-02-14T12:58:32;0.30;;;0.20;;
67037;SDS011;53940;53.204;6.590;2024-02-14T13:01:33;0.20;;;0.20;;
67037;SDS011;53940;53.204;6.590;2024-02-14T13:04:33;0.20;;;0.20;;
67037;SDS011;53940;53.204;6.590;2024-02-14T13:07:34;0.30;;;0.20;;
67037;SDS011;53940;53.204;6.590;2024-02-14T13:10:35;0.55;;;0.30;;
67037;SDS011;53940;53.204;6.590;2024-02-14T13:13:35;0.55;;;0.38;;
67037;SDS011;53940;53.204;6.590;2024-02-14T13:16:36;0.40;;;0.20;;
67037;SDS011;53940;53.204;6.590;2024-02-14T13:19:36;0.22;;;0.20;;
67037;SDS011;53940;53.204;6.590;2024-02-14T13:22:37;0.20;;;0.20;;
67037;SDS011;53940;53.204;6.590;2024-02-14T13:25:37;0.30;;;0.30;;
67037;SDS011;53940;53.204;6.590;2024-02-14T13:28:37;0.25;;;0.20;;
67037;SDS011;53940;53.204;6.590;2024-02-14T13:31:38;0.25;;;0.25;;
67037;SDS011;53940;53.204;6.590;2024-02-14T13:34:38;0.43;;;0.20;;
67037;SDS011;53940;53.204;6.590;2024-02-14T13:37:38;0.20;;;0.20;;
67037;SDS011;53940;53.204;6.590;2024-02-14T13:40:39;0.20;;;0.20;;
67037;SDS011;53940;53.204;6.590;2024-02-14T13:43:39;0.45;;;0.30;;
67037;SDS011;53940;53.204;6.590;2024-02-14T13:46:43;0.20;;;0.15;;
67037;SDS011;53940;53.204;6.590;2024-02-14T13:49:45;0.20;;;0.20;;
67037;SDS011;53940;53.204;6.590;2024-02-14T13:52:45;0.20;;;0.20;;
67037;SDS011;53940;53.204;6.590;2024-02-14T13:55:46;0.82;;;0.30;;
67037;SDS011;53940;53.204;6.590;2024-02-14T13:58:46;0.43;;;0.30;;
67037;SDS011;53940;53.204;6.590;2024-02-14T14:01:47;0.28;;;0.20;;
67037;SDS011;53940;53.204;6.590;2024-02-14T14:04:47;0.20;;;0.10;;
67037;SDS011;53940;53.204;6.590;2024-02-14T14:07:49;0.40;;;0.20;;
67037;SDS011;53940;53.204;6.590;2024-02-14T14:10:49;0.40;;;0.30;;
67037;SDS011;53940;53.204;6.590;2024-02-14T14:13:49;0.30;;;0.20;;
67037;SDS011;53940;53.204;6.590;2024-02-14T14:16:50;0.20;;;0.20;;
67037;SDS011;53940;53.204;6.590;2024-02-14T14:19:51;0.28;;;0.28;;
67037;SDS011;53940;53.204;6.590;2024-02-14T14:22:52;0.43;;;0.30;;
67037;SDS011;53940;53.204;6.590;2024-02-14T14:25:52;0.40;;;0.20;;
67037;SDS011;53940;53.204;6.590;2024-02-14T14:28:52;0.35;;;0.20;;
67037;SDS011;53940;53.204;6.590;2024-02-14T14:31:54;0.35;;;0.20;;
67037;SDS011;53940;53.204;6.590;2024-02-14T14:34:55;0.68;;;0.40;;
67037;SDS011;53940;53.204;6.590;2024-02-14T14:37:55;0.20;;;0.20;;
67037;SDS011;53940;53.204;6.590;2024-02-14T14:40:56;0.20;;;0.20;;
67037;SDS011;53940;53.204;6.590;2024-02-14T14:43:57;0.47;;;0.30;;
67037;SDS011;53940;53.204;6.590;2024-02-14T14:46:57;0.40;;;0.22;;
67037;SDS011;53940;53.204;6.590;2024-02-14T14:49:58;0.40;;;0.30;;
67037;SDS011;53940;53.204;6.590;2024-02-14T14:52:59;0.25;;;0.20;;
67037;SDS011;53940;53.204;6.590;2024-02-14T14:55:59;0.68;;;0.32;;
67037;SDS011;53940;53.204;6.590;2024-02-14T14:59:00;0.35;;;0.25;;
67037;SDS011;53940;53.204;6.590;2024-02-14T15:02:03;0.28;;;0.22;;
67037;SDS011;53940;53.204;6.590;2024-02-14T15:05:05;0.20;;;0.20;;
67037;SDS011;53940;53.204;6.590;2024-02-14T15:08:07;0.30;;;0.20;;
67037;SDS011;53940;53.204;6.590;2024-02-14T15:11:07;0.20;;;0.20;;
67037;SDS011;53940;53.204;6.590;2024-02-14T15:14:08;0.40;;;0.30;;
67037;SDS011;53940;53.204;6.590;2024-02-14T15:17:08;0.38;;;0.30;;
67037;SDS011;53940;53.204;6.590;2024-02-14T15:20:09;0.55;;;0.30;;
67037;SDS011;53940;53.204;6.590;2024-02-14T15:23:09;0.45;;;0.30;;
67037;SDS011;53940;53.204;6.590;2024-02-14T15:26:10;0.25;;;0.25;;
67037;SDS011;53940;53.204;6.590;2024-02-14T15:29:13;0.22;;;0.20;;
67037;SDS011;53940;53.204;6.590;2024-02-14T15:32:32;0.28;;;0.25;;
67037;SDS011;53940;53.204;6.590;2024-02-14T15:35:56;0.45;;;0.32;;
67037;SDS011;53940;53.204;6.590;2024-02-14T15:38:57;0.50;;;0.30;;
67037;SDS011;53940;53.204;6.590;2024-02-14T15:41:57;0.30;;;0.30;;
67037;SDS011;53940;53.204;6.590;2024-02-14T15:44:58;0.60;;;0.20;;
67037;SDS011;53940;53.204;6.590;2024-02-14T15:47:58;0.70;;;0.32;;
67037;SDS011;53940;53.204;6.590;2024-02-14T15:51:00;0.82;;;0.30;;
67037;SDS011;53940;53.204;6.590;2024-02-14T15:54:01;1.50;;;0.40;;
67037;SDS011;53940;53.204;6.590;2024-02-14T15:57:01;0.80;;;0.40;;
67037;SDS011;53940;53.204;6.590;2024-02-14T16:00:02;0.20;;;0.20;;
67037;SDS011;53940;53.204;6.590;2024-02-14T16:03:06;0.60;;;0.32;;
67037;SDS011;53940;53.204;6.590;2024-02-14T16:06:06;0.25;;;0.20;;
67037;SDS011;53940;53.204;6.590;2024-02-14T16:09:06;0.47;;;0.28;;
67037;SDS011;53940;53.204;6.590;2024-02-14T16:12:07;0.82;;;0.40;;
67037;SDS011;53940;53.204;6.590;2024-02-14T16:15:07;0.30;;;0.30;;
67037;SDS011;53940;53.204;6.590;2024-02-14T16:18:08;0.30;;;0.30;;
67037;SDS011;53940;53.204;6.590;2024-02-14T16:21:09;0.25;;;0.20;;
67037;SDS011;53940;53.204;6.590;2024-02-14T16:24:09;0.70;;;0.30;;
67037;SDS011;53940;53.204;6.590;2024-02-14T16:27:10;0.25;;;0.25;;
67037;SDS011;53940;53.204;6.590;2024-02-14T16:30:10;0.38;;;0.28;;
67037;SDS011;53940;53.204;6.590;2024-02-14T16:33:11;1.08;;;0.30;;
67037;SDS011;53940;53.204;6.590;2024-02-14T16:36:11;0.22;;;0.22;;
67037;SDS011;53940;53.204;6.590;2024-02-14T16:39:12;0.30;;;0.25;;
67037;SDS011;53940;53.204;6.590;2024-02-14T16:42:12;0.77;;;0.35;;
67037;SDS011;53940;53.204;6.590;2024-02-14T16:45:14;0.85;;;0.30;;
67037;SDS011;53940;53.204;6.590;2024-02-14T16:48:16;1.70;;;0.30;;
67037;SDS011;53940;53.204;6.590;2024-02-14T16:51:16;1.25;;;0.32;;
67037;SDS011;53940;53.204;6.590;2024-02-14T16:54:17;1.38;;;0.35;;
67037;SDS011;53940;53.204;6.590;2024-02-14T16:57:17;0.50;;;0.30;;
67037;SDS011;53940;53.204;6.590;2024-02-14T17:00:18;0.68;;;0.32;;
67037;SDS011;53940;53.204;6.590;2024-02-14T17:03:19;0.40;;;0.30;;
67037;SDS011;53940;53.204;6.590;2024-02-14T17:06:19;0.63;;;0.30;;
67037;SDS011;53940;53.204;6.590;2024-02-14T17:09:19;0.43;;;0.30;;
67037;SDS011;53940;53.204;6.590;2024-02-14T17:12:20;1.02;;;0.30;;
67037;SDS011;53940;53.204;6.590;2024-02-14T17:15:20;8.85;;;2.47;;
67037;SDS011;53940;53.204;6.590;2024-02-14T17:18:21;371.73;;;146.27;;
67037;SDS011;53940;53.204;6.590;2024-02-14T17:21:22;231.77;;;98.07;;
67037;SDS011;53940;53.204;6.590;2024-02-14T17:24:22;286.80;;;134.90;;
67037;SDS011;53940;53.204;6.590;2024-02-14T17:27:23;222.35;;;110.65;;
67037;SDS011;53940;53.204;6.590;2024-02-14T17:30:24;211.43;;;103.85;;
67037;SDS011;53940;53.204;6.590;2024-02-14T17:33:24;186.93;;;94.85;;
67037;SDS011;53940;53.204;6.590;2024-02-14T17:36:24;182.00;;;89.75;;
67037;SDS011;53940;53.204;6.590;2024-02-14T17:39:25;169.35;;;88.97;;
67037;SDS011;53940;53.204;6.590;2024-02-14T17:42:25;166.98;;;86.15;;
67037;SDS011;53940;53.204;6.590;2024-02-14T17:45:27;151.27;;;78.05;;
67037;SDS011;53940;53.204;6.590;2024-02-14T17:48:28;161.75;;;80.43;;
67037;SDS011;53940;53.204;6.590;2024-02-14T17:51:28;151.88;;;77.63;;
67037;SDS011;53940;53.204;6.590;2024-02-14T17:54:29;156.00;;;78.05;;
67037;SDS011;53940;53.204;6.590;2024-02-14T17:57:29;149.57;;;77.68;;
67037;SDS011;53940;53.204;6.590;2024-02-14T18:00:29;134.25;;;71.45;;
67037;SDS011;53940;53.204;6.590;2024-02-14T18:03:30;141.98;;;73.65;;
67037;SDS011;53940;53.204;6.590;2024-02-14T18:06:30;126.00;;;69.30;;